createdAt,value
2023-03-25T00:01:19.000Z,95784.25
2023-03-25T00:03:53.247Z,95775.97
2023-03-25T00:06:21.798Z,95781.31
2023-03-25T00:08:50.039Z,95770.56
2023-03-25T00:11:18.259Z,95767.31
2023-03-25T00:13:48.070Z,95765.72
2023-03-25T00:16:16.730Z,95763.53
2023-03-25T00:18:45.001Z,95757.59
2023-03-25T00:21:15.133Z,95767.88
2023-03-25T00:23:43.492Z,95766.31
2023-03-25T00:26:11.896Z,95764.13
2023-03-25T00:28:40.446Z,95768.56
2023-03-25T00:31:11.842Z,95766.59
2023-03-25T00:33:45.168Z,95767.81
2023-03-25T00:36:15.324Z,95767.22
2023-03-25T00:38:45.714Z,95763.06
2023-03-25T00:41:17.617Z,95772.22
2023-03-25T00:43:46.383Z,95774.13
2023-03-25T00:46:14.749Z,95771.13
2023-03-25T00:48:43.122Z,95777.91
2023-03-25T00:51:13.778Z,95758.13
2023-03-25T00:53:43.210Z,95773.63
2023-03-25T00:56:12.303Z,95768.13
2023-03-25T00:58:41.033Z,95767.66
2023-03-25T01:01:13.095Z,95760.47
2023-03-25T01:03:43.901Z,95763.75
2023-03-25T01:06:12.686Z,95761.94
2023-03-25T01:08:43.236Z,95752.34
2023-03-25T01:11:18.944Z,95760.00
2023-03-25T01:13:47.344Z,95754.84
2023-03-25T01:16:15.878Z,95759.09
2023-03-25T01:18:44.864Z,95755.88
2023-03-25T01:21:13.106Z,95745.47
2023-03-25T01:23:41.301Z,95750.09
2023-03-25T01:26:13.103Z,95742.22
2023-03-25T01:28:41.992Z,95742.41
2023-03-25T01:31:11.952Z,95742.84
2023-03-25T01:33:40.603Z,95753.13
2023-03-25T01:36:10.418Z,95736.88
2023-03-25T01:38:38.765Z,95744.06
2023-03-25T01:41:07.896Z,95738.50
2023-03-25T01:43:37.617Z,95730.44
2023-03-25T01:46:06.347Z,95711.47
2023-03-25T01:48:37.885Z,95720.41
2023-03-25T01:51:10.383Z,95722.59
2023-03-25T01:53:39.016Z,95727.31
2023-03-25T01:56:08.569Z,95716.53
2023-03-25T01:58:38.310Z,95723.09
2023-03-25T02:01:11.485Z,95721.72
2023-03-25T02:03:45.872Z,95719.16
2023-03-25T02:06:19.586Z,95705.03
2023-03-25T02:08:47.940Z,95711.81
2023-03-25T02:11:19.299Z,95698.50
2023-03-25T02:13:49.104Z,95706.81
2023-03-25T02:16:27.576Z,95694.28
2023-03-25T02:19:05.493Z,95697.88
2023-03-25T02:21:54.118Z,95701.97
2023-03-25T02:24:54.138Z,95695.81
2023-03-25T02:27:33.782Z,95689.75
2023-03-25T02:30:33.075Z,95688.31
2023-03-25T02:33:30.473Z,95702.84
2023-03-25T02:36:15.990Z,95690.44
2023-03-25T02:38:48.428Z,95683.97
2023-03-25T02:41:20.411Z,95685.94
2023-03-25T02:43:53.179Z,95684.53
2023-03-25T02:46:22.271Z,95696.34
2023-03-25T02:48:54.698Z,95696.09
2023-03-25T02:51:26.754Z,95700.09
2023-03-25T02:53:58.128Z,95705.97
2023-03-25T02:56:27.200Z,95705.81
2023-03-25T02:58:56.510Z,95711.53
2023-03-25T03:01:26.844Z,95699.06
2023-03-25T03:03:55.556Z,95701.50
2023-03-25T03:06:24.970Z,95705.00
2023-03-25T03:09:06.008Z,95698.81
2023-03-25T03:11:39.378Z,95696.09
2023-03-25T03:14:21.380Z,95682.81
2023-03-25T03:16:52.339Z,95695.63
2023-03-25T03:19:31.592Z,95699.31
2023-03-25T03:22:02.857Z,95710.88
2023-03-25T03:24:33.745Z,95696.84
2023-03-25T03:27:08.304Z,95710.06
2023-03-25T03:29:38.421Z,95705.84
2023-03-25T03:32:10.017Z,95710.63
2023-03-25T03:34:44.660Z,95715.56
2023-03-25T03:37:16.228Z,95719.94
2023-03-25T03:39:47.635Z,95724.00
2023-03-25T03:42:19.426Z,95723.44
2023-03-25T03:44:51.654Z,95718.94
2023-03-25T03:47:23.035Z,95742.75
2023-03-25T03:49:54.117Z,95740.72
2023-03-25T03:52:25.668Z,95724.25
2023-03-25T03:54:58.125Z,95741.63
2023-03-25T03:57:29.861Z,95740.97
2023-03-25T04:00:04.477Z,95725.09
2023-03-25T04:02:38.479Z,95728.00
2023-03-25T04:05:08.994Z,95727.09
2023-03-25T04:07:41.599Z,95720.41
2023-03-25T04:10:15.865Z,95722.78
2023-03-25T04:12:46.997Z,95733.91
2023-03-25T04:15:16.091Z,95726.50
2023-03-25T04:17:45.550Z,95731.56
2023-03-25T04:20:16.657Z,95730.13
2023-03-25T04:22:45.644Z,95731.38
2023-03-25T04:25:15.688Z,95747.13
2023-03-25T04:27:48.970Z,95740.78
2023-03-25T04:30:19.209Z,95752.34
2023-03-25T04:32:48.498Z,95747.03
2023-03-25T04:35:18.486Z,95768.78
2023-03-25T04:37:49.059Z,95753.81
2023-03-25T04:40:19.016Z,95764.00
2023-03-25T04:42:47.822Z,95758.06
2023-03-25T04:45:17.420Z,95753.06
2023-03-25T04:47:47.047Z,95752.59
2023-03-25T04:50:20.582Z,95754.78
2023-03-25T04:52:49.001Z,95755.16
2023-03-25T04:55:19.548Z,95743.44
2023-03-25T04:57:48.051Z,95752.66
2023-03-25T05:00:18.453Z,95750.44
2023-03-25T05:02:47.483Z,95749.22
2023-03-25T05:05:18.628Z,95739.13
2023-03-25T05:07:49.380Z,95742.72
2023-03-25T05:10:20.208Z,95743.72
2023-03-25T05:12:48.984Z,95741.22
2023-03-25T05:15:18.351Z,95721.41
2023-03-25T05:17:46.765Z,95737.41
2023-03-25T05:20:16.327Z,95726.03
2023-03-25T05:22:45.740Z,95732.16
2023-03-25T05:25:14.109Z,95744.97
2023-03-25T05:27:43.770Z,95744.00
2023-03-25T05:30:12.967Z,95752.34
2023-03-25T05:32:42.070Z,95750.81
2023-03-25T05:35:11.521Z,95754.25
2023-03-25T05:37:39.824Z,95754.97
2023-03-25T05:40:14.988Z,95757.16
2023-03-25T05:42:49.172Z,95767.41
2023-03-25T05:45:17.620Z,95762.25
2023-03-25T05:47:46.106Z,95767.59
2023-03-25T05:50:15.542Z,95763.31
2023-03-25T05:52:44.264Z,95770.09
2023-03-25T05:55:14.264Z,95768.22
2023-03-25T05:57:42.558Z,95775.03
2023-03-25T06:00:15.565Z,95782.78
2023-03-25T06:02:44.174Z,95789.47
2023-03-25T06:05:14.311Z,95784.97
2023-03-25T06:07:43.724Z,95791.97
2023-03-25T06:10:12.493Z,95790.13
2023-03-25T06:12:40.939Z,95797.00
2023-03-25T06:15:14.058Z,95797.91
2023-03-25T06:17:42.726Z,95809.69
2023-03-25T06:20:12.666Z,95799.44
2023-03-25T06:22:42.848Z,95814.25
2023-03-25T06:25:12.245Z,95818.31
2023-03-25T06:27:41.384Z,95814.03
2023-03-25T06:30:13.621Z,95816.91
2023-03-25T06:32:41.991Z,95813.41
2023-03-25T06:35:11.818Z,95819.31
2023-03-25T06:37:40.394Z,95817.56
2023-03-25T06:40:10.159Z,95782.09
2023-03-25T06:42:38.429Z,95820.00
2023-03-25T06:45:07.756Z,95824.22
2023-03-25T06:47:37.525Z,95824.66
2023-03-25T06:50:07.276Z,95836.13
2023-03-25T06:52:36.073Z,95827.16
2023-03-25T06:55:04.630Z,95837.72
2023-03-25T06:57:32.913Z,95840.91
2023-03-25T07:00:01.168Z,95850.09
2023-03-25T07:02:29.503Z,95842.78
2023-03-25T07:04:59.213Z,95843.38
2023-03-25T07:07:27.502Z,95848.25
2023-03-25T07:09:56.078Z,95847.47
2023-03-25T07:12:25.022Z,95858.03
2023-03-25T07:14:53.734Z,95852.44
2023-03-25T07:17:22.867Z,95845.75
2023-03-25T07:19:51.617Z,95842.78
2023-03-25T07:22:21.323Z,95856.00
2023-03-25T07:24:49.570Z,95849.03
2023-03-25T07:27:17.999Z,95866.13
2023-03-25T07:29:46.292Z,95858.91
2023-03-25T07:32:14.618Z,95877.31
2023-03-25T07:34:42.955Z,95867.06
2023-03-25T07:37:11.262Z,95872.41
2023-03-25T07:39:41.008Z,95872.97
2023-03-25T07:42:09.311Z,95883.47
2023-03-25T07:44:37.624Z,95878.22
2023-03-25T07:47:06.029Z,95889.88
2023-03-25T07:49:34.314Z,95894.06
2023-03-25T07:52:02.666Z,95894.03
2023-03-25T07:54:30.926Z,95895.13
2023-03-25T07:57:00.648Z,95881.25
2023-03-25T07:59:29.522Z,95887.69
2023-03-25T08:01:58.279Z,95874.31
2023-03-25T08:04:27.187Z,95878.63
2023-03-25T08:06:55.893Z,95890.53
2023-03-25T08:09:24.615Z,95881.72
2023-03-25T08:11:52.938Z,95894.19
2023-03-25T08:14:22.637Z,95892.59
2023-03-25T08:16:51.164Z,95886.19
2023-03-25T08:19:19.495Z,95895.19
2023-03-25T08:21:47.784Z,95885.28
2023-03-25T08:24:16.213Z,95883.19
2023-03-25T08:26:44.768Z,95883.97
2023-03-25T08:29:14.188Z,95889.31
2023-03-25T08:31:46.897Z,95883.03
2023-03-25T08:34:15.539Z,95884.06
2023-03-25T08:36:43.811Z,95879.47
2023-03-25T08:39:12.698Z,95882.19
2023-03-25T08:41:41.157Z,95873.94
2023-03-25T08:44:09.475Z,95876.09
2023-03-25T08:46:38.092Z,95872.25
2023-03-25T08:49:07.837Z,95875.16
2023-03-25T08:51:36.501Z,95879.53
2023-03-25T08:54:04.971Z,95874.41
2023-03-25T08:56:33.234Z,95881.84
2023-03-25T08:59:01.588Z,95877.22
2023-03-25T09:01:29.867Z,95875.25
2023-03-25T09:03:58.290Z,95882.09
2023-03-25T09:06:27.981Z,95881.19
2023-03-25T09:08:57.311Z,95881.47
2023-03-25T09:11:36.111Z,95885.66
2023-03-25T09:14:05.944Z,95883.38
2023-03-25T09:16:34.343Z,95866.72
2023-03-25T09:19:03.002Z,95903.09
2023-03-25T09:21:32.575Z,95883.00
2023-03-25T09:24:00.940Z,95865.09
2023-03-25T09:26:29.203Z,95873.06
2023-03-25T09:28:57.467Z,95881.19
2023-03-25T09:31:26.080Z,95870.94
2023-03-25T09:33:54.462Z,95863.34
2023-03-25T09:36:22.744Z,95871.00
2023-03-25T09:38:52.326Z,95865.06
2023-03-25T09:41:42.105Z,95867.28
2023-03-25T09:44:16.125Z,95854.50
2023-03-25T09:46:44.964Z,95862.63
2023-03-25T09:49:16.232Z,95847.28
2023-03-25T09:51:46.108Z,95841.78
2023-03-25T09:54:21.363Z,95846.06
2023-03-25T09:56:51.137Z,95847.44
2023-03-25T09:59:21.541Z,95828.22
2023-03-25T10:01:56.179Z,95847.53
2023-03-25T10:04:52.206Z,95811.47
2023-03-25T10:07:33.638Z,95834.31
2023-03-25T10:10:09.478Z,95838.41
2023-03-25T10:12:43.772Z,95844.44
2023-03-25T10:15:21.536Z,95843.41
2023-03-25T10:17:58.752Z,95833.56
2023-03-25T10:20:39.441Z,95833.72
2023-03-25T10:23:08.836Z,95832.53
2023-03-25T10:25:41.668Z,95843.97
2023-03-25T10:28:15.534Z,95808.50
2023-03-25T10:30:46.403Z,95811.44
2023-03-25T10:33:20.344Z,95819.38
2023-03-25T10:35:49.415Z,95823.00
2023-03-25T10:38:21.536Z,95818.91
2023-03-25T10:40:53.582Z,95786.22
2023-03-25T10:43:25.820Z,95799.84
2023-03-25T10:45:57.351Z,95792.53
2023-03-25T10:48:27.928Z,95808.00
2023-03-25T10:51:11.833Z,95813.41
2023-03-25T10:53:41.540Z,95799.72
2023-03-25T10:56:14.906Z,95812.66
2023-03-25T10:58:44.499Z,95784.72
2023-03-25T11:01:14.242Z,95769.16
2023-03-25T11:03:43.586Z,95772.41
2023-03-25T11:06:22.385Z,95774.81
2023-03-25T11:09:18.052Z,95770.69
2023-03-25T11:11:48.188Z,95769.53
2023-03-25T11:14:17.468Z,95758.44
2023-03-25T11:16:48.408Z,95735.78
2023-03-25T11:19:20.313Z,95746.16
2023-03-25T11:21:49.748Z,95725.06
2023-03-25T11:24:20.370Z,95745.25
2023-03-25T11:26:51.783Z,95755.25
2023-03-25T11:29:21.038Z,95744.53
2023-03-25T11:31:58.900Z,95747.59
2023-03-25T11:34:27.826Z,95743.06
2023-03-25T11:37:00.724Z,95717.28
2023-03-25T11:39:34.305Z,95713.75
2023-03-25T11:42:12.987Z,95705.59
2023-03-25T11:44:41.730Z,95720.63
2023-03-25T11:47:11.920Z,95712.50
2023-03-25T11:49:42.017Z,95704.88
2023-03-25T11:52:16.342Z,95697.09
2023-03-25T11:54:45.613Z,95690.25
2023-03-25T11:57:17.181Z,95697.00
2023-03-25T11:59:46.949Z,95705.09
2023-03-25T12:02:23.261Z,95655.47
2023-03-25T12:04:59.466Z,95682.69
2023-03-25T12:07:27.921Z,95680.16
2023-03-25T12:09:57.710Z,95612.88
2023-03-25T12:12:35.501Z,95675.84
2023-03-25T12:15:10.243Z,95675.81
2023-03-25T12:17:50.684Z,95665.78
2023-03-25T12:20:26.980Z,95672.41
2023-03-25T12:23:02.342Z,95649.94
2023-03-25T12:25:48.024Z,95648.25
2023-03-25T12:28:31.156Z,95667.88
2023-03-25T12:31:05.292Z,95667.91
2023-03-25T12:33:41.248Z,95673.38
2023-03-25T12:36:22.134Z,95666.88
2023-03-25T12:38:56.255Z,95682.47
2023-03-25T12:41:31.519Z,95681.22
2023-03-25T12:44:04.990Z,95671.41
2023-03-25T12:47:00.256Z,95680.09
2023-03-25T12:49:39.973Z,95678.94
2023-03-25T12:52:12.513Z,95663.56
2023-03-25T12:57:49.004Z,95680.03
2023-03-25T13:00:34.386Z,95692.91
2023-03-25T13:03:25.362Z,95704.06
2023-03-25T13:05:55.770Z,95644.81
2023-03-25T13:08:29.119Z,95685.53
2023-03-25T13:10:59.879Z,95705.84
2023-03-25T13:13:30.037Z,95681.75
2023-03-25T13:16:05.348Z,95685.34
2023-03-25T13:18:37.065Z,95680.81
2023-03-25T13:21:13.745Z,95655.19
2023-03-25T13:23:43.783Z,95684.53
2023-03-25T13:26:13.180Z,95678.69
2023-03-25T13:28:43.509Z,95679.50
2023-03-25T13:31:15.599Z,95685.66
2023-03-25T13:33:46.934Z,95668.41
2023-03-25T13:36:18.023Z,95665.38
2023-03-25T13:38:50.096Z,95642.72
2023-03-25T13:41:21.140Z,95666.03
2023-03-25T13:43:57.069Z,95672.63
2023-03-25T13:46:31.208Z,95656.09
2023-03-25T13:49:02.711Z,95654.88
2023-03-25T13:51:31.055Z,95662.78
2023-03-25T13:54:01.721Z,95642.88
2023-03-25T13:57:07.106Z,95693.41
2023-03-25T14:00:01.657Z,95662.16
2023-03-25T14:02:40.001Z,95669.28
2023-03-25T14:05:41.136Z,95665.03
2023-03-25T14:08:42.049Z,95664.53
2023-03-25T14:11:19.443Z,95679.34
2023-03-25T14:13:50.871Z,95667.53
2023-03-25T14:16:21.163Z,95674.19
2023-03-25T14:18:53.458Z,95651.22
2023-03-25T14:21:31.774Z,95679.47
2023-03-25T14:24:04.886Z,95653.78
2023-03-25T14:26:34.368Z,95643.63
2023-03-25T14:29:09.907Z,95652.44
2023-03-25T14:31:38.199Z,95659.19
2023-03-25T14:34:40.567Z,95675.00
2023-03-25T14:37:18.974Z,95656.53
2023-03-25T14:39:47.222Z,95687.28
2023-03-25T14:42:28.605Z,95679.16
2023-03-25T14:45:31.971Z,95663.91
2023-03-25T14:48:00.813Z,95676.38
2023-03-25T14:50:35.499Z,95672.94
2023-03-25T14:53:06.336Z,95653.19
2023-03-25T14:55:36.806Z,95658.41
2023-03-25T14:58:08.546Z,95679.94
2023-03-25T15:00:42.526Z,95656.66
2023-03-25T15:03:13.584Z,95690.66
2023-03-25T15:05:43.449Z,95665.66
2023-03-25T15:08:14.902Z,95656.19
2023-03-25T15:10:44.418Z,95676.34
2023-03-25T15:13:19.502Z,95671.94
2023-03-25T15:16:01.293Z,95683.44
2023-03-25T15:19:09.009Z,95664.94
2023-03-25T15:22:17.206Z,95651.25
2023-03-25T15:24:55.606Z,95689.56
2023-03-25T15:27:32.878Z,95700.00
2023-03-25T15:30:06.993Z,95693.88
2023-03-25T15:32:44.807Z,95688.78
2023-03-25T15:35:32.240Z,95714.94
2023-03-25T15:38:10.117Z,95707.81
2023-03-25T15:40:50.576Z,95682.41
2023-03-25T15:43:25.895Z,95695.06
2023-03-25T15:46:29.816Z,95706.13
2023-03-25T15:49:09.521Z,95701.03
2023-03-25T15:51:46.967Z,95702.47
2023-03-25T15:54:39.528Z,95697.56
2023-03-25T15:57:19.230Z,95700.03
2023-03-25T15:59:55.524Z,95712.72
2023-03-25T16:02:27.803Z,95721.19
2023-03-25T16:04:56.421Z,95725.53
2023-03-25T16:07:25.720Z,95728.78
2023-03-25T16:09:55.454Z,95720.13
2023-03-25T16:12:26.169Z,95703.31
2023-03-25T16:14:54.243Z,95709.47
2023-03-25T16:17:29.864Z,95710.50
2023-03-25T16:19:58.442Z,95699.81
2023-03-25T16:22:28.376Z,95697.75
2023-03-25T16:24:58.196Z,95697.91
2023-03-25T16:27:31.461Z,95707.75
2023-03-25T16:29:59.674Z,95720.09
2023-03-25T16:32:33.465Z,95715.06
2023-03-25T16:35:01.908Z,95672.88
2023-03-25T16:37:33.976Z,95722.19
2023-03-25T16:40:06.953Z,95726.00
2023-03-25T16:42:37.348Z,95722.66
2023-03-25T16:45:08.566Z,95691.19
2023-03-25T16:47:37.494Z,95711.09
2023-03-25T16:50:06.656Z,95706.41
2023-03-25T16:52:35.560Z,95707.41
2023-03-25T16:55:15.306Z,95720.94
2023-03-25T16:57:47.359Z,95737.44
2023-03-25T17:00:19.168Z,95765.72
2023-03-25T17:02:49.937Z,95769.66
2023-03-25T17:05:20.580Z,95793.69
2023-03-25T17:07:51.141Z,95816.16
2023-03-25T17:10:22.744Z,95803.69
2023-03-25T17:12:56.614Z,95809.81
2023-03-25T17:15:25.263Z,95794.63
2023-03-25T17:18:00.007Z,95802.31
2023-03-25T17:20:32.450Z,95801.56
2023-03-25T17:23:04.481Z,95801.78
2023-03-25T17:25:35.618Z,95803.13
2023-03-25T17:28:24.836Z,95801.56
2023-03-25T17:30:53.346Z,95801.16
2023-03-25T17:33:33.927Z,95788.41
2023-03-25T17:36:03.811Z,95804.03
2023-03-25T17:38:36.421Z,95791.25
2023-03-25T17:41:07.338Z,95791.31
2023-03-25T17:43:41.827Z,95796.06
2023-03-25T17:46:10.759Z,95793.78
2023-03-25T17:48:39.039Z,95792.53
2023-03-25T17:51:07.586Z,95794.16
2023-03-25T17:53:35.828Z,95800.84
2023-03-25T17:56:05.972Z,95789.19
2023-03-25T17:58:34.391Z,95790.66
2023-03-25T18:01:04.349Z,95786.00
2023-03-25T18:03:33.730Z,95786.28
2023-03-25T18:06:02.493Z,95787.13
2023-03-25T18:08:30.860Z,95788.75
2023-03-25T18:10:59.784Z,95791.78
2023-03-25T18:13:28.131Z,95792.00
2023-03-25T18:15:56.856Z,95805.09
2023-03-25T18:18:27.637Z,95821.22
2023-03-25T18:20:56.960Z,95826.47
2023-03-25T18:23:25.925Z,95825.66
2023-03-25T18:25:54.183Z,95829.38
2023-03-25T18:28:22.751Z,95811.38
2023-03-25T18:30:53.429Z,95842.25
2023-03-25T18:33:22.005Z,95829.47
2023-03-25T18:35:52.628Z,95836.06
2023-03-25T18:38:24.334Z,95835.31
2023-03-25T18:40:53.820Z,95826.03
2023-03-25T18:43:23.067Z,95837.22
2023-03-25T18:45:51.599Z,95827.91
2023-03-25T18:48:21.821Z,95829.56
2023-03-25T18:50:54.505Z,95823.69
2023-03-25T18:53:24.579Z,95828.19
2023-03-25T18:55:54.575Z,95818.50
2023-03-25T18:58:24.351Z,95826.31
2023-03-25T19:00:53.858Z,95827.13
2023-03-25T19:03:30.406Z,95831.97
2023-03-25T19:06:02.781Z,95835.41
2023-03-25T19:08:31.081Z,95840.31
2023-03-25T19:11:11.757Z,95840.34
2023-03-25T19:13:47.584Z,95837.06
2023-03-25T19:16:15.931Z,95823.88
2023-03-25T19:18:44.305Z,95830.94
2023-03-25T19:21:18.141Z,95835.63
2023-03-25T19:23:47.136Z,95839.53
2023-03-25T19:26:15.597Z,95840.41
2023-03-25T19:28:43.865Z,95833.50
2023-03-25T19:31:14.956Z,95819.69
2023-03-25T19:33:43.313Z,95838.19
2023-03-25T19:36:15.042Z,95828.50
2023-03-25T19:38:44.754Z,95837.38
2023-03-25T19:41:15.441Z,95821.16
2023-03-25T19:43:43.966Z,95828.84
2023-03-25T19:46:12.596Z,95839.47
2023-03-25T19:48:40.925Z,95840.78
2023-03-25T19:51:09.143Z,95818.72
2023-03-25T19:53:37.390Z,95836.63
2023-03-25T19:56:07.433Z,95839.19
2023-03-25T19:58:35.693Z,95836.59
2023-03-25T20:01:04.030Z,95827.56
2023-03-25T20:03:33.002Z,95835.53
2023-03-25T20:06:02.697Z,95835.72
2023-03-25T20:08:31.946Z,95828.56
2023-03-25T20:11:01.075Z,95829.88
2023-03-25T20:13:31.054Z,95829.63
2023-03-25T20:15:59.307Z,95823.41
2023-03-25T20:18:27.684Z,95832.28
2023-03-25T20:20:55.952Z,95821.50
2023-03-25T20:23:24.186Z,95825.38
2023-03-25T20:25:53.342Z,95834.59
2023-03-25T20:28:22.983Z,95842.28
2023-03-25T20:30:52.592Z,95838.81
2023-03-25T20:33:21.208Z,95847.53
2023-03-25T20:35:49.656Z,95839.81
2023-03-25T20:38:18.826Z,95854.72
2023-03-25T20:40:47.279Z,95841.38
2023-03-25T20:43:15.624Z,95844.28
2023-03-25T20:45:44.415Z,95848.44
2023-03-25T20:48:14.202Z,95848.13
2023-03-25T20:50:43.475Z,95838.56
2023-03-25T20:53:12.116Z,95847.13
2023-03-25T20:55:40.766Z,95841.56
2023-03-25T20:58:11.375Z,95849.91
2023-03-25T21:00:39.493Z,95852.09
2023-03-25T21:03:07.817Z,95839.72
2023-03-25T21:05:40.594Z,95852.44
2023-03-25T21:08:08.893Z,95857.84
2023-03-25T21:10:37.184Z,95857.06
2023-03-25T21:13:06.959Z,95873.66
2023-03-25T21:15:38.405Z,95868.72
2023-03-25T21:18:08.862Z,95866.00
2023-03-25T21:20:38.697Z,95865.97
2023-03-25T21:23:07.177Z,95865.50
2023-03-25T21:25:35.510Z,95859.69
2023-03-25T21:28:04.517Z,95857.53
2023-03-25T21:30:33.224Z,95863.28
2023-03-25T21:33:01.548Z,95858.66
2023-03-25T21:35:29.803Z,95847.19
2023-03-25T21:38:00.941Z,95858.53
2023-03-25T21:40:39.930Z,95851.47
2023-03-25T21:43:08.570Z,95845.34
2023-03-25T21:45:36.908Z,95844.53
2023-03-25T21:48:08.799Z,95849.69
2023-03-25T21:50:38.332Z,95847.94
2023-03-25T21:53:13.175Z,95837.97
2023-03-25T21:55:41.482Z,95841.72
2023-03-25T21:58:10.579Z,95840.19
2023-03-25T22:00:41.556Z,95830.41
2023-03-25T22:03:12.060Z,95840.25
2023-03-25T22:05:40.475Z,95838.56
2023-03-25T22:08:10.397Z,95835.91
2023-03-25T22:10:38.702Z,95840.13
2023-03-25T22:13:06.996Z,95839.81
2023-03-25T22:15:36.141Z,95847.94
2023-03-25T22:18:04.648Z,95839.00
2023-03-25T22:20:32.924Z,95841.81
2023-03-25T22:23:01.224Z,95834.56
2023-03-25T22:25:30.922Z,95843.75
2023-03-25T22:27:59.522Z,95849.72
2023-03-25T22:30:27.793Z,95841.53
2023-03-25T22:32:56.179Z,95846.56
2023-03-25T22:35:28.710Z,95856.41
2023-03-25T22:37:57.330Z,95855.97
2023-03-25T22:40:27.124Z,95854.44
2023-03-25T22:42:56.762Z,95855.25
2023-03-25T22:45:25.018Z,95853.50
2023-03-25T22:47:53.468Z,95850.25
2023-03-25T22:50:21.733Z,95853.47
2023-03-25T22:52:50.281Z,95852.03
2023-03-25T22:55:18.515Z,95857.31
2023-03-25T22:57:47.166Z,95860.75
2023-03-25T23:00:18.063Z,95859.53
2023-03-25T23:02:48.263Z,95859.22
2023-03-25T23:05:18.563Z,95863.84
2023-03-25T23:07:46.888Z,95852.34
2023-03-25T23:10:16.024Z,95870.78
2023-03-25T23:12:44.283Z,95876.22
2023-03-25T23:15:14.047Z,95867.28
2023-03-25T23:17:43.703Z,95874.84
2023-03-25T23:20:12.491Z,95862.84
2023-03-25T23:22:40.800Z,95868.06
2023-03-25T23:25:10.401Z,95865.53
2023-03-25T23:27:39.362Z,95871.03
2023-03-25T23:30:09.097Z,95860.28
2023-03-25T23:32:37.497Z,95867.00
2023-03-25T23:35:08.118Z,95856.84
2023-03-25T23:37:36.173Z,95861.03
2023-03-25T23:40:05.417Z,95846.72
2023-03-25T23:42:35.534Z,95850.38
2023-03-25T23:45:04.546Z,95842.81
2023-03-25T23:47:32.950Z,95844.06
2023-03-25T23:50:02.087Z,95852.09
2023-03-25T23:52:33.486Z,95849.31
2023-03-25T23:55:01.803Z,95844.22
2023-03-25T23:57:30.462Z,95842.28
2023-03-25T23:59:58.902Z,95848.69
